Time;durP1;ratioP1;P1;durP2;ratioP2;P2;SDS_P1;SDS_P2;PMS_P1;PMS_P2;Temp;Humidity;BMP_temperature;BMP_pressure;BME280_temperature;BME280_humidity;BME280_pressure;Samples;Min_cycle;Max_cycle;Signal;HPM_P1;HPM_P2
2024/03/30 00:02:34;;;;;;;13.90;7.50;;;;;;;10.24;77.38;98576.69;10386732;28;20042;-57
2024/03/30 00:07:40;;;;;;;14.13;6.72;;;;;;;10.21;77.16;98583.31;10388138;28;20095;-57
2024/03/30 00:12:41;;;;;;;12.93;6.88;;;;;;;10.20;76.90;98578.97;10382177;28;20072;-57
2024/03/30 00:17:42;;;;;;;16.80;6.50;;;;;;;10.11;77.09;98578.41;10392076;28;20048;-58
2024/03/30 00:22:42;;;;;;;13.05;6.03;;;;;;;10.09;77.51;98566.22;10383671;28;20052;-58
2024/03/30 00:27:43;;;;;;;18.15;6.10;;;;;;;10.07;77.10;98555.72;10386103;28;20053;-59
2024/03/30 00:32:43;;;;;;;14.88;6.70;;;;;;;10.12;77.01;98553.19;10387907;28;20049;-59
2024/03/30 00:37:44;;;;;;;15.15;6.60;;;;;;;10.05;77.32;98544.41;10384313;28;20057;-60
2024/03/30 00:42:46;;;;;;;14.60;6.72;;;;;;;10.08;77.33;98535.88;10385358;28;20045;-59
2024/03/30 00:47:47;;;;;;;13.52;6.88;;;;;;;10.07;77.22;98541.47;10390110;28;20107;-59
2024/03/30 00:52:48;;;;;;;12.75;6.47;;;;;;;10.07;77.14;98541.47;10384474;28;20484;-59
2024/03/30 00:57:49;;;;;;;15.55;5.72;;;;;;;10.08;77.01;98537.75;10380931;28;20054;-59
2024/03/30 01:02:49;;;;;;;13.80;6.55;;;;;;;10.05;77.00;98530.97;10386877;28;20160;-60
2024/03/30 01:07:50;;;;;;;16.23;6.43;;;;;;;10.03;77.23;98533.06;10383230;28;20044;-58
2024/03/30 01:12:51;;;;;;;16.40;6.80;;;;;;;10.00;77.13;98532.66;10378446;28;20456;-58
2024/03/30 01:17:51;;;;;;;17.85;7.65;;;;;;;9.98;77.26;98519.44;10379779;28;20053;-58
2024/03/30 01:22:52;;;;;;;16.92;8.48;;;;;;;9.90;77.12;98517.03;10382967;28;20639;-58
2024/03/30 01:27:57;;;;;;;13.55;6.75;;;;;;;9.81;77.40;98513.78;10363426;28;20072;-59
2024/03/30 01:32:58;;;;;;;18.55;6.97;;;;;;;9.76;77.63;98510.94;10382139;28;20052;-59
2024/03/30 01:37:58;;;;;;;13.35;6.43;;;;;;;9.71;77.83;98508.88;10376459;28;20076;-60
2024/03/30 01:43:05;;;;;;;14.63;6.80;;;;;;;9.75;77.62;98521.88;10379939;28;20046;-59
2024/03/30 01:48:10;;;;;;;18.80;7.40;;;;;;;9.76;77.25;98528.91;10377068;28;20042;-59
2024/03/30 01:53:15;;;;;;;14.93;7.50;;;;;;;9.72;77.37;98523.94;10382123;28;20062;-61
2024/03/30 01:58:24;;;;;;;15.30;6.80;;;;;;;9.69;77.11;98508.28;10377369;28;20041;-59
2024/03/30 02:03:26;;;;;;;14.52;6.78;;;;;;;9.63;77.15;98516.38;10380096;28;20053;-60
2024/03/30 02:08:27;;;;;;;16.45;6.93;;;;;;;9.60;77.45;98516.81;10377465;28;20041;-58
2024/03/30 02:13:31;;;;;;;15.15;7.13;;;;;;;9.55;77.14;98512.06;10380694;28;20046;-59
2024/03/30 02:18:31;;;;;;;10.95;6.40;;;;;;;9.49;77.13;98518.31;10380518;28;20041;-59
2024/03/30 02:23:32;;;;;;;13.10;6.22;;;;;;;9.48;77.43;98517.50;10380779;28;20045;-59
2024/03/30 02:28:33;;;;;;;15.88;6.38;;;;;;;9.44;77.14;98508.22;10375444;28;20092;-60
2024/03/30 02:33:34;;;;;;;16.23;5.88;;;;;;;9.44;77.21;98502.03;10379782;28;20099;-60
2024/03/30 02:38:34;;;;;;;11.77;6.80;;;;;;;9.42;77.17;98509.47;10403298;28;20037;-60
2024/03/30 02:43:35;;;;;;;11.57;5.50;;;;;;;9.35;77.25;98496.09;10403778;28;20110;-59
2024/03/30 02:48:35;;;;;;;12.52;5.43;;;;;;;9.33;77.28;98498.97;10407468;28;20057;-58
2024/03/30 02:53:36;;;;;;;12.80;4.97;;;;;;;9.33;77.18;98508.88;10404337;28;20148;-58
2024/03/30 02:58:37;;;;;;;10.98;5.90;;;;;;;9.27;77.36;98501.69;10404888;28;20044;-57
2024/03/30 03:03:37;;;;;;;11.20;5.15;;;;;;;9.25;77.22;98499.22;10400716;28;20046;-59
2024/03/30 03:08:38;;;;;;;11.40;4.65;;;;;;;9.19;77.10;98496.59;10403318;28;20048;-57
2024/03/30 03:13:38;;;;;;;13.52;5.45;;;;;;;9.16;77.42;98500.50;10402328;28;20072;-57
2024/03/30 03:18:39;;;;;;;10.68;4.78;;;;;;;9.09;77.26;98494.34;10403849;28;20044;-58
2024/03/30 03:23:40;;;;;;;12.82;5.25;;;;;;;9.05;77.27;98495.81;10393469;28;20045;-58
2024/03/30 03:28:40;;;;;;;10.80;5.00;;;;;;;9.00;77.17;98495.63;10387534;28;20049;-58
2024/03/30 03:33:41;;;;;;;13.15;5.50;;;;;;;8.96;77.22;98497.06;10394882;28;20059;-58
2024/03/30 03:38:42;;;;;;;10.13;5.35;;;;;;;8.89;77.60;98483.72;10404944;28;20172;-57
2024/03/30 03:43:43;;;;;;;11.75;5.40;;;;;;;8.89;77.28;98479.16;10410601;28;20056;-58
2024/03/30 03:48:43;;;;;;;13.40;5.70;;;;;;;8.74;77.90;98475.91;10405708;28;20496;-56
2024/03/30 03:53:44;;;;;;;10.00;4.95;;;;;;;8.81;77.56;98476.72;10409804;28;20033;-57
2024/03/30 03:58:44;;;;;;;12.45;5.00;;;;;;;8.82;77.58;98478.34;10408493;28;20041;-60
2024/03/30 04:03:46;;;;;;;11.00;5.30;;;;;;;8.77;77.66;98461.28;10409382;28;20053;-61
2024/03/30 04:08:46;;;;;;;9.77;4.88;;;;;;;8.59;77.83;98478.00;10412753;28;20063;-60
2024/03/30 04:13:47;;;;;;;8.50;4.82;;;;;;;8.62;77.65;98482.97;10409217;28;20051;-60
2024/03/30 04:18:47;;;;;;;9.85;5.10;;;;;;;8.57;77.65;98474.72;10408005;28;20096;-59
2024/03/30 04:23:49;;;;;;;9.82;4.20;;;;;;;8.58;77.75;98477.19;10410809;28;20049;-60
2024/03/30 04:28:49;;;;;;;9.63;4.47;;;;;;;8.57;77.70;98466.69;10413948;28;20059;-60
2024/03/30 04:33:50;;;;;;;32.55;14.90;;;;;;;8.49;77.61;98470.41;10399541;28;20056;-57
2024/03/30 04:38:50;;;;;;;25.23;13.07;;;;;;;8.53;77.98;98477.84;10407273;28;20045;-56
2024/03/30 04:43:51;;;;;;;24.17;10.52;;;;;;;8.59;77.64;98484.22;10408039;28;20051;-56
2024/03/30 04:48:51;;;;;;;18.38;9.43;;;;;;;8.60;77.45;98480.47;10402356;28;20045;-59
2024/03/30 04:53:52;;;;;;;12.07;6.55;;;;;;;8.64;77.21;98478.22;10409311;28;20041;-59
2024/03/30 04:58:52;;;;;;;10.93;5.13;;;;;;;8.66;77.56;98485.00;10408336;28;20539;-59
2024/03/30 05:03:53;;;;;;;6.70;4.30;;;;;;;8.69;77.82;98473.06;10410273;28;20123;-65
2024/03/30 05:08:53;;;;;;;8.90;4.15;;;;;;;8.76;78.37;98473.03;10412934;28;20045;-65
2024/03/30 05:13:54;;;;;;;11.20;3.80;;;;;;;8.86;77.30;98473.41;10405867;28;20045;-64
2024/03/30 05:18:54;;;;;;;9.65;2.90;;;;;;;9.03;77.18;98471.09;10410681;28;20033;-64
2024/03/30 05:23:55;;;;;;;8.85;3.92;;;;;;;9.09;76.93;98476.41;10411437;28;20099;-67
2024/03/30 05:28:55;;;;;;;7.82;3.42;;;;;;;9.07;77.07;98478.47;10410270;28;20049;-66
2024/03/30 05:33:56;;;;;;;7.95;3.63;;;;;;;9.13;77.24;98474.13;10406058;28;20502;-66
2024/03/30 05:38:56;;;;;;;6.90;3.22;;;;;;;9.22;77.24;98472.03;10406124;28;20403;-66
2024/03/30 05:43:57;;;;;;;8.07;3.03;;;;;;;9.22;77.50;98482.75;10417070;28;20087;-66
2024/03/30 05:48:57;;;;;;;9.68;3.42;;;;;;;9.39;77.52;98461.63;10411212;28;20048;-66
2024/03/30 05:53:57;;;;;;;7.50;4.35;;;;;;;9.56;77.45;98470.81;10409671;28;20094;-66
2024/03/30 05:58:58;;;;;;;11.90;6.57;;;;;;;9.70;76.52;98468.88;10401759;28;20045;-62
2024/03/30 06:03:58;;;;;;;15.02;8.55;;;;;;;9.81;77.12;98461.97;10388352;28;20046;-65
2024/03/30 06:08:59;;;;;;;17.02;8.38;;;;;;;9.93;77.15;98468.28;10408612;28;20045;-63
2024/03/30 06:14:00;;;;;;;13.20;7.75;;;;;;;9.87;77.39;98467.31;10406462;28;20460;-66
2024/03/30 06:19:00;;;;;;;17.55;8.50;;;;;;;10.02;77.07;98466.97;10402596;28;20172;-57
2024/03/30 06:24:01;;;;;;;13.05;7.97;;;;;;;10.12;77.09;98469.16;10413988;28;20108;-57
2024/03/30 06:29:02;;;;;;;13.35;7.80;;;;;;;10.16;77.25;98477.59;10417063;28;20041;-58
2024/03/30 06:34:05;;;;;;;13.82;8.35;;;;;;;10.25;76.90;98462.88;10396422;28;1012399;-58
2024/03/30 06:39:05;;;;;;;13.55;8.32;;;;;;;10.32;77.39;98460.97;10414653;28;20045;-60
2024/03/30 06:44:06;;;;;;;14.43;8.35;;;;;;;10.46;77.47;98470.53;10404840;28;20038;-58
2024/03/30 06:49:06;;;;;;;11.05;7.28;;;;;;;10.51;77.23;98470.69;10415429;28;20075;-57
2024/03/30 06:54:07;;;;;;;11.15;7.10;;;;;;;10.70;77.00;98462.63;10405852;28;20042;-66
2024/03/30 06:59:08;;;;;;;10.32;6.60;;;;;;;10.91;77.35;98464.06;10398761;28;20718;-59
2024/03/30 07:04:08;;;;;;;17.25;7.05;;;;;;;11.17;76.98;98470.16;10406240;28;20094;-58
2024/03/30 07:09:09;;;;;;;11.60;5.63;;;;;;;11.46;76.60;98465.84;10405397;28;20063;-57
2024/03/30 07:14:09;;;;;;;7.80;5.07;;;;;;;11.72;76.50;98461.94;10400991;28;20053;-57
2024/03/30 07:19:09;;;;;;;8.10;4.80;;;;;;;12.06;76.29;98459.56;10410252;28;20036;-57
2024/03/30 07:24:10;;;;;;;6.10;4.05;;;;;;;12.24;76.25;98456.81;10407720;28;20521;-61
2024/03/30 07:29:10;;;;;;;6.47;4.30;;;;;;;12.43;76.59;98465.56;10408362;28;20037;-60
2024/03/30 07:34:11;;;;;;;6.72;4.50;;;;;;;12.46;76.58;98465.13;10405612;28;20104;-69
2024/03/30 07:39:11;;;;;;;13.63;6.03;;;;;;;12.59;76.56;98461.34;10413729;28;20095;-60
2024/03/30 07:44:12;;;;;;;13.45;5.43;;;;;;;12.76;76.44;98466.84;10406734;28;20095;-60
2024/03/30 07:49:13;;;;;;;18.30;9.25;;;;;;;12.85;76.01;98461.91;10412808;28;20064;-61
2024/03/30 07:54:13;;;;;;;15.88;7.70;;;;;;;13.03;75.65;98469.00;10410939;28;20499;-60
2024/03/30 07:59:14;;;;;;;7.28;4.10;;;;;;;13.16;75.59;98457.16;10412016;28;20403;-60
2024/03/30 08:04:15;;;;;;;8.40;3.38;;;;;;;13.37;75.66;98456.50;10408861;28;20480;-60
2024/03/30 08:09:15;;;;;;;8.00;4.20;;;;;;;13.54;75.60;98464.63;10411233;28;20045;-60
2024/03/30 08:14:16;;;;;;;12.25;4.03;;;;;;;13.67;75.25;98458.13;10407926;28;20044;-61
2024/03/30 08:19:17;;;;;;;7.43;4.10;;;;;;;13.84;74.85;98453.56;10407423;28;20061;-60
2024/03/30 08:24:17;;;;;;;7.55;3.63;;;;;;;13.91;74.99;98452.59;10409739;28;20619;-60
2024/03/30 08:29:18;;;;;;;5.63;3.67;;;;;;;13.94;75.04;98447.53;10407803;28;20044;-60
2024/03/30 08:34:18;;;;;;;6.50;3.28;;;;;;;13.94;75.16;98452.94;10410337;28;20084;-61
2024/03/30 08:39:19;;;;;;;5.72;3.00;;;;;;;13.85;75.31;98467.88;10417147;28;20140;-58
2024/03/30 08:44:19;;;;;;;8.95;3.55;;;;;;;14.00;74.85;98467.31;10409640;28;20081;-58
2024/03/30 08:49:20;;;;;;;12.80;5.10;;;;;;;14.18;74.63;98455.44;10405952;28;20140;-60
2024/03/30 08:54:20;;;;;;;8.18;4.18;;;;;;;14.36;74.21;98446.28;10408667;28;20045;-60
2024/03/30 08:59:21;;;;;;;7.45;3.60;;;;;;;14.52;74.16;98461.66;10411304;28;20041;-60
2024/03/30 09:04:21;;;;;;;7.18;3.22;;;;;;;14.65;74.23;98442.41;10405509;28;20060;-61
2024/03/30 09:09:22;;;;;;;5.63;3.58;;;;;;;14.75;74.21;98449.84;10407583;28;20044;-60
2024/03/30 09:14:23;;;;;;;10.07;3.17;;;;;;;14.84;73.98;98452.91;10406965;28;20695;-60
2024/03/30 09:19:25;;;;;;;9.68;3.60;;;;;;;14.86;74.11;98456.19;10408792;28;20063;-60
2024/03/30 09:24:26;;;;;;;8.52;3.90;;;;;;;14.93;74.10;98453.28;10410281;28;20048;-60
2024/03/30 09:29:26;;;;;;;12.07;3.55;;;;;;;15.19;73.88;98457.16;10405117;28;20128;-60
2024/03/30 09:34:27;;;;;;;7.13;3.63;;;;;;;15.17;73.94;98460.09;10408292;28;20049;-60
2024/03/30 09:39:27;;;;;;;14.20;5.00;;;;;;;15.49;73.33;98448.53;10405743;28;20041;-59
2024/03/30 09:44:28;;;;;;;11.68;4.50;;;;;;;15.80;72.93;98444.25;10405405;28;20059;-59
2024/03/30 09:49:32;;;;;;;24.23;3.58;;;;;;;16.05;72.37;98443.66;10408207;28;20484;-60
2024/03/30 09:54:34;;;;;;;9.82;3.42;;;;;;;16.31;72.28;98424.03;10410842;28;20065;-60
2024/03/30 09:59:34;;;;;;;12.55;2.80;;;;;;;16.49;72.34;98433.66;10416186;28;20492;-60
2024/03/30 10:04:35;;;;;;;11.98;5.05;;;;;;;16.68;72.03;98434.84;10405720;28;20089;-61
2024/03/30 10:09:36;;;;;;;14.85;4.43;;;;;;;17.02;71.34;98434.47;10402575;28;20053;-61
2024/03/30 10:14:43;;;;;;;13.18;4.47;;;;;;;17.32;70.93;98422.94;10407049;28;20041;-60
2024/03/30 10:19:44;;;;;;;16.33;4.05;;;;;;;17.77;70.04;98426.81;10410233;28;20518;-61
2024/03/30 10:24:44;;;;;;;16.83;4.50;;;;;;;18.31;69.18;98416.50;10401823;28;20045;-60
2024/03/30 10:29:45;;;;;;;22.10;4.82;;;;;;;20.31;64.10;98397.13;10403421;28;20041;-62
2024/03/30 10:34:46;;;;;;;24.45;3.30;;;;;;;20.39;64.23;98395.69;10402307;28;20115;-60
2024/03/30 10:39:46;;;;;;;25.92;3.35;;;;;;;20.44;63.22;98409.31;10400622;28;20500;-61
2024/03/30 10:44:52;;;;;;;21.50;2.17;;;;;;;20.20;62.26;98434.63;10403860;28;20047;-61
2024/03/30 10:49:52;;;;;;;33.53;4.10;;;;;;;20.39;60.94;98445.63;10412201;28;20041;-62
2024/03/30 10:54:57;;;;;;;26.63;2.08;;;;;;;20.37;59.99;98461.47;10410578;28;20049;-61
2024/03/30 11:00:01;;;;;;;26.92;2.08;;;;;;;21.03;57.54;98447.44;10412490;28;20080;-63
2024/03/30 11:05:03;;;;;;;17.55;2.90;;;;;;;21.63;57.95;98457.91;10413859;28;20088;-62
2024/03/30 11:10:05;;;;;;;16.88;3.05;;;;;;;21.68;58.93;98447.72;10412855;28;20044;-63
2024/03/30 11:15:06;;;;;;;21.17;3.30;;;;;;;21.20;60.04;98450.50;10414575;28;20389;-64
2024/03/30 11:20:25;;;;;;;25.35;2.55;;;;;;;20.97;60.57;98452.16;10410089;28;20046;-63
2024/03/30 11:25:29;;;;;;;25.45;2.40;;;;;;;20.74;60.73;98451.88;10412626;28;20030;-63
2024/03/30 11:30:43;;;;;;;21.77;2.22;;;;;;;20.36;61.17;98473.50;10414314;28;20048;-62
2024/03/30 11:35:50;;;;;;;20.02;3.35;;;;;;;20.17;61.18;98467.13;10415200;28;20079;-60
2024/03/30 11:41:01;;;;;;;22.60;2.47;;;;;;;19.84;61.69;98475.00;10407088;28;20088;-62
2024/03/30 11:46:02;;;;;;;19.00;2.70;;;;;;;19.55;61.95;98494.78;10411454;28;20069;-63
2024/03/30 11:51:03;;;;;;;17.85;2.80;;;;;;;19.20;63.46;98491.13;10415494;28;20045;-63
2024/03/30 11:56:03;;;;;;;17.38;4.97;;;;;;;19.15;63.03;98496.56;10411480;28;20060;-60
2024/03/30 12:01:07;;;;;;;30.85;3.80;;;;;;;19.07;62.50;98486.25;10413509;28;20037;-63
2024/03/30 12:06:18;;;;;;;17.38;2.25;;;;;;;18.87;62.38;98480.88;10414111;28;20042;-61
2024/03/30 12:11:19;;;;;;;10.23;1.48;;;;;;;18.69;63.02;98485.78;10407277;28;20052;-58
2024/03/30 12:16:19;;;;;;;18.20;1.75;;;;;;;18.65;63.01;98490.16;10406390;28;20053;-59
2024/03/30 12:21:20;;;;;;;12.77;1.95;;;;;;;18.50;62.86;98480.09;10408200;28;20139;-59
2024/03/30 12:26:21;;;;;;;15.70;2.50;;;;;;;18.41;62.95;98477.13;10409172;28;20053;-59
2024/03/30 12:31:22;;;;;;;11.52;1.75;;;;;;;18.42;62.24;98492.38;10413788;28;20049;-59
2024/03/30 12:36:22;;;;;;;19.73;2.22;;;;;;;18.42;61.51;98478.78;10412119;28;20102;-59
2024/03/30 12:41:27;;;;;;;18.42;3.63;;;;;;;18.40;61.17;98488.28;10409797;28;20044;-59
2024/03/30 12:46:28;;;;;;;18.60;2.75;;;;;;;18.26;61.34;98490.72;10411019;28;20046;-61
2024/03/30 12:51:35;;;;;;;16.40;2.45;;;;;;;18.15;60.75;98495.38;10409272;28;20492;-63
2024/03/30 12:56:36;;;;;;;19.42;2.83;;;;;;;18.14;60.65;98488.28;10412622;28;20044;-62
2024/03/30 13:01:36;;;;;;;16.65;2.05;;;;;;;18.13;60.88;98497.53;10411542;28;20043;-62
2024/03/30 13:06:41;;;;;;;14.43;2.08;;;;;;;18.09;61.27;98496.47;10411755;28;20120;-62
2024/03/30 13:11:41;;;;;;;26.80;4.43;;;;;;;18.02;61.32;98491.25;10408916;28;20122;-61
2024/03/30 13:16:42;;;;;;;22.73;1.88;;;;;;;17.99;61.27;98488.25;10403967;28;20064;-60
2024/03/30 13:21:42;;;;;;;16.92;2.40;;;;;;;17.87;61.96;98483.13;10412842;28;20111;-60
2024/03/30 13:26:43;;;;;;;20.63;2.78;;;;;;;17.85;62.58;98479.81;10405680;28;20052;-62
2024/03/30 13:31:47;;;;;;;24.05;2.40;;;;;;;17.77;61.87;98473.00;10406276;28;20033;-62
2024/03/30 13:36:48;;;;;;;17.10;1.75;;;;;;;17.74;61.79;98478.16;10368805;28;20048;-61
2024/03/30 13:41:48;;;;;;;24.45;3.97;;;;;;;17.69;62.01;98476.25;10385352;28;20041;-61
2024/03/30 13:46:49;;;;;;;35.63;3.47;;;;;;;17.65;61.30;98480.56;10380145;28;20501;-60
2024/03/30 13:51:49;;;;;;;29.02;2.33;;;;;;;17.63;61.02;98478.16;10381649;28;20053;-60
2024/03/30 13:56:56;;;;;;;26.98;3.15;;;;;;;17.73;60.72;98474.63;10379290;28;20053;-60
2024/03/30 14:01:56;;;;;;;25.48;3.70;;;;;;;17.84;61.23;98473.56;10387338;28;20033;-61
2024/03/30 14:06:57;;;;;;;29.85;6.45;;;;;;;17.90;61.99;98468.97;10380939;28;20060;-61
2024/03/30 14:11:57;;;;;;;27.17;8.07;;;;;;;17.98;62.52;98457.56;10381699;28;20513;-61
2024/03/30 14:16:58;;;;;;;27.67;6.25;;;;;;;18.07;62.38;98460.56;10382225;28;20091;-61
2024/03/30 14:21:58;;;;;;;25.83;5.38;;;;;;;18.11;62.66;98483.41;10380267;28;20531;-61
2024/03/30 14:27:01;;;;;;;21.13;4.43;;;;;;;18.21;62.14;98482.59;10364750;28;20060;-66
2024/03/30 14:32:01;;;;;;;26.20;4.75;;;;;;;18.21;61.74;98494.28;10384533;28;20072;-66
2024/03/30 14:37:03;;;;;;;23.13;4.50;;;;;;;18.28;61.46;98493.19;10382503;28;20040;-60
2024/03/30 14:42:04;;;;;;;29.88;7.03;;;;;;;18.24;61.13;98501.88;10387492;28;20041;-60
2024/03/30 14:47:06;;;;;;;27.17;4.78;;;;;;;18.15;60.96;98500.81;10382764;28;20038;-60
2024/03/30 14:52:07;;;;;;;28.80;4.07;;;;;;;18.18;60.82;98502.97;10376981;28;20046;-61
2024/03/30 14:57:07;;;;;;;16.42;4.13;;;;;;;18.16;60.77;98507.06;10362390;28;20046;-60
2024/03/30 15:02:08;;;;;;;21.95;4.18;;;;;;;18.07;60.85;98516.81;10377329;28;20063;-60
2024/03/30 15:07:09;;;;;;;23.85;5.03;;;;;;;18.07;60.85;98522.25;10379100;28;20053;-60
2024/03/30 15:12:09;;;;;;;26.23;2.92;;;;;;;17.98;60.74;98527.44;10375372;28;20050;-60
2024/03/30 15:17:10;;;;;;;30.05;2.45;;;;;;;17.92;60.97;98526.59;10382564;28;20400;-60
2024/03/30 15:22:10;;;;;;;19.77;2.45;;;;;;;17.72;61.43;98542.84;10378825;28;20899;-60
2024/03/30 15:27:12;;;;;;;22.52;2.15;;;;;;;17.50;61.88;98543.03;10378152;28;20038;-60
2024/03/30 15:32:17;;;;;;;27.35;2.42;;;;;;;17.47;61.64;98551.72;10385935;28;20038;-60
2024/03/30 15:37:18;;;;;;;26.17;4.65;;;;;;;17.39;61.51;98569.34;10386690;28;20103;-60
2024/03/30 15:42:18;;;;;;;22.50;2.45;;;;;;;17.34;61.53;98574.75;10385994;28;20053;-60
2024/03/30 15:47:19;;;;;;;18.83;3.30;;;;;;;17.08;62.36;98587.34;10388920;28;20046;-60
2024/03/30 15:52:20;;;;;;;26.50;3.03;;;;;;;16.97;62.39;98584.59;10385098;28;20064;-60
2024/03/30 15:57:20;;;;;;;42.00;4.18;;;;;;;16.94;62.06;98584.28;10387233;28;20096;-60
2024/03/30 16:02:21;;;;;;;27.73;3.72;;;;;;;16.81;61.91;98570.09;10386856;28;20057;-58
2024/03/30 16:07:21;;;;;;;21.52;2.67;;;;;;;16.86;61.72;98561.16;10392536;28;20092;-58
2024/03/30 16:12:22;;;;;;;18.98;3.80;;;;;;;16.78;62.12;98565.13;10372597;28;20048;-57
2024/03/30 16:17:22;;;;;;;19.58;2.83;;;;;;;16.86;61.81;98593.72;10388318;28;20121;-57
2024/03/30 16:22:23;;;;;;;27.80;3.80;;;;;;;16.83;62.14;98602.41;10388397;28;20065;-57
2024/03/30 16:27:23;;;;;;;17.70;3.80;;;;;;;16.75;62.34;98611.00;10384884;28;20121;-56
2024/03/30 16:32:24;;;;;;;26.73;3.70;;;;;;;16.59;62.37;98615.47;10391759;28;20158;-59
2024/03/30 16:37:24;;;;;;;18.20;2.45;;;;;;;16.50;62.82;98622.44;10385977;28;20046;-58
2024/03/30 16:42:25;;;;;;;23.35;2.83;;;;;;;16.37;62.70;98624.50;10388329;28;20088;-57
2024/03/30 16:47:25;;;;;;;21.48;3.38;;;;;;;16.30;62.84;98631.22;10385581;28;20052;-56
2024/03/30 16:52:26;;;;;;;16.00;2.88;;;;;;;16.23;63.14;98636.81;10389834;28;20124;-61
2024/03/30 16:57:26;;;;;;;15.73;3.47;;;;;;;16.22;62.99;98648.75;10381748;28;20065;-59
2024/03/30 17:02:27;;;;;;;15.52;2.15;;;;;;;16.16;62.80;98658.72;10380454;28;20041;-60
2024/03/30 17:07:28;;;;;;;22.60;3.08;;;;;;;16.12;63.27;98660.31;10383575;28;20049;-62
2024/03/30 17:12:35;;;;;;;19.02;2.85;;;;;;;16.22;62.82;98663.13;10383896;28;20050;-60
2024/03/30 17:17:36;;;;;;;22.33;2.38;;;;;;;16.21;62.93;98661.50;10389980;28;20037;-60
2024/03/30 17:22:36;;;;;;;23.08;3.08;;;;;;;16.17;63.07;98673.94;10381438;28;20103;-60
2024/03/30 17:27:36;;;;;;;17.52;2.92;;;;;;;16.12;62.72;98657.59;10381170;28;20041;-60
2024/03/30 17:32:37;;;;;;;20.60;3.47;;;;;;;16.13;63.04;98669.25;10360489;28;20060;-60
2024/03/30 17:37:38;;;;;;;24.33;3.45;;;;;;;16.16;63.03;98679.59;10333779;28;20061;-60
2024/03/30 17:42:39;;;;;;;25.83;3.17;;;;;;;16.09;63.13;98693.31;10344085;28;20541;-60
2024/03/30 17:47:39;;;;;;;17.60;3.95;;;;;;;16.00;63.55;98698.38;10347747;28;20512;-59
2024/03/30 17:52:40;;;;;;;23.15;3.13;;;;;;;15.85;63.75;98693.56;10347248;28;20400;-60
2024/03/30 17:57:40;;;;;;;30.27;5.05;;;;;;;15.69;64.00;98699.84;10344485;28;20091;-60
2024/03/30 18:02:48;;;;;;;20.85;4.95;;;;;;;15.48;64.05;98704.13;10341147;28;20575;-60
2024/03/30 18:07:48;;;;;;;;;;;;;;;15.24;64.86;98720.59;10336105;28;20049;-59
2024/03/30 18:12:49;;;;;;;24.35;4.75;;;;;;;15.04;64.77;98715.66;10362080;28;19952;-57
2024/03/30 18:17:49;;;;;;;23.67;4.70;;;;;;;14.78;65.35;98724.41;10347496;28;20042;-57
2024/03/30 18:22:50;;;;;;;19.45;5.30;;;;;;;14.58;65.72;98722.16;10343061;28;20037;-55
2024/03/30 18:27:50;;;;;;;29.40;6.55;;;;;;;14.33;66.16;98725.16;10345367;28;20053;-55
2024/03/30 18:32:51;;;;;;;19.75;3.80;;;;;;;14.08;66.51;98732.53;10342414;28;20098;-56
2024/03/30 18:37:52;;;;;;;22.50;2.92;;;;;;;13.95;67.06;98742.78;10382570;28;20077;-56
2024/03/30 18:42:52;;;;;;;22.73;2.55;;;;;;;13.84;66.90;98745.28;10380208;28;20045;-55
2024/03/30 18:47:53;;;;;;;17.75;2.47;;;;;;;13.81;66.49;98729.53;10378382;28;20489;-57
2024/03/30 18:52:55;;;;;;;15.65;2.38;;;;;;;13.80;66.67;98743.25;10377343;28;20584;-57
2024/03/30 18:57:56;;;;;;;19.85;3.03;;;;;;;13.78;66.65;98737.28;10383562;28;20045;-57
2024/03/30 19:02:57;;;;;;;26.13;2.80;;;;;;;13.70;67.03;98735.75;10377410;28;20041;-57
2024/03/30 19:07:57;;;;;;;30.10;8.27;;;;;;;13.67;67.31;98725.44;10374616;28;20034;-57
2024/03/30 19:12:58;;;;;;;59.33;17.65;;;;;;;13.67;67.00;98730.84;10385421;28;20048;-57
2024/03/30 19:17:59;;;;;;;36.85;9.23;;;;;;;13.63;67.04;98753.97;10386730;28;20069;-56
2024/03/30 19:22:59;;;;;;;42.50;11.30;;;;;;;13.55;66.69;98730.03;10391852;28;20078;-55
2024/03/30 19:28:00;;;;;;;34.65;8.20;;;;;;;13.45;67.28;98733.31;10387594;28;20627;-56
2024/03/30 19:33:01;;;;;;;27.38;7.65;;;;;;;13.32;67.57;98734.34;10387995;28;20054;-56
2024/03/30 19:38:01;;;;;;;31.42;10.15;;;;;;;13.16;67.57;98732.31;10398419;28;20523;-55
2024/03/30 19:43:02;;;;;;;31.45;8.48;;;;;;;13.03;68.04;98738.75;10412405;28;20050;-55
2024/03/30 19:48:03;;;;;;;23.75;8.40;;;;;;;12.93;68.12;98723.13;10414438;28;20042;-55
2024/03/30 19:53:04;;;;;;;33.42;8.40;;;;;;;12.73;68.58;98730.72;10417417;28;20045;-56
2024/03/30 19:58:05;;;;;;;31.23;8.27;;;;;;;12.67;68.74;98746.75;10397632;28;20045;-56
2024/03/30 20:03:05;;;;;;;20.60;8.35;;;;;;;12.72;68.51;98742.53;10411819;28;20072;-55
2024/03/30 20:08:09;;;;;;;25.20;8.82;;;;;;;12.69;68.77;98728.47;10409991;28;20056;-56
2024/03/30 20:13:10;;;;;;;32.50;10.02;;;;;;;12.66;68.64;98714.63;10405754;28;20665;-55
2024/03/30 20:18:10;;;;;;;34.60;10.25;;;;;;;12.56;69.01;98703.56;10406940;28;20179;-56
2024/03/30 20:23:10;;;;;;;32.15;11.18;;;;;;;12.47;69.29;98708.47;10412635;28;20063;-63
2024/03/30 20:28:11;;;;;;;29.60;10.10;;;;;;;12.43;69.50;98726.16;10407600;28;20044;-64
2024/03/30 20:33:12;;;;;;;27.98;9.30;;;;;;;12.36;69.80;98731.66;10411141;28;20068;-65
2024/03/30 20:38:12;;;;;;;26.27;8.82;;;;;;;12.22;70.22;98736.38;10411486;28;20048;-64
2024/03/30 20:43:14;;;;;;;22.40;7.72;;;;;;;12.36;69.92;98739.72;10407280;28;20049;-57
2024/03/30 20:48:14;;;;;;;30.40;11.15;;;;;;;12.46;69.57;98734.59;10406075;28;20049;-60
2024/03/30 20:53:15;;;;;;;40.47;13.88;;;;;;;12.45;69.70;98708.69;10411431;28;20504;-60
2024/03/30 20:58:16;;;;;;;41.13;17.58;;;;;;;12.36;69.88;98695.78;10390662;28;20474;-58
2024/03/30 21:03:17;;;;;;;57.22;23.40;;;;;;;12.28;70.04;98689.66;10395465;28;20514;-58
2024/03/30 21:08:17;;;;;;;27.88;9.75;;;;;;;12.15;70.41;98695.22;10413249;28;20061;-59
2024/03/30 21:13:18;;;;;;;25.50;6.18;;;;;;;12.16;70.96;98701.44;10406833;28;20511;-58
2024/03/30 21:18:20;;;;;;;19.13;6.10;;;;;;;12.29;70.24;98701.25;10379619;28;20579;-58
2024/03/30 21:23:20;;;;;;;39.13;14.95;;;;;;;12.33;70.30;98696.25;10408698;28;20045;-59
2024/03/30 21:28:21;;;;;;;39.13;12.70;;;;;;;12.33;69.89;98704.31;10407756;28;20053;-58
2024/03/30 21:33:22;;;;;;;34.92;10.25;;;;;;;12.30;70.18;98703.72;10409439;28;20126;-58
2024/03/30 21:38:22;;;;;;;32.85;12.10;;;;;;;12.30;69.90;98701.03;10385214;28;20049;-58
2024/03/30 21:43:23;;;;;;;19.67;6.82;;;;;;;12.21;70.36;98693.50;10408039;28;20537;-57
2024/03/30 21:48:24;;;;;;;21.73;6.75;;;;;;;12.06;70.84;98677.72;10404280;28;20090;-58
2024/03/30 21:53:25;;;;;;;24.75;5.63;;;;;;;11.94;71.04;98672.28;10390262;28;20102;-58
2024/03/30 21:58:26;;;;;;;29.27;6.47;;;;;;;12.04;70.93;98687.91;10410002;28;20532;-58
2024/03/30 22:03:26;;;;;;;35.22;10.23;;;;;;;12.08;70.49;98681.84;10387884;28;20045;-58
2024/03/30 22:08:27;;;;;;;35.22;16.65;;;;;;;12.11;70.68;98677.88;10410465;28;20041;-58
2024/03/30 22:13:27;;;;;;;46.42;18.67;;;;;;;12.08;70.32;98679.16;10407777;28;20048;-59
2024/03/30 22:18:28;;;;;;;24.85;11.25;;;;;;;12.07;70.32;98684.78;10384669;28;20049;-58
2024/03/30 22:23:28;;;;;;;24.42;8.30;;;;;;;12.07;70.66;98682.06;10405087;28;20045;-58
2024/03/30 22:28:29;;;;;;;19.33;6.40;;;;;;;12.07;70.25;98682.88;10400333;28;20037;-59
2024/03/30 22:33:29;;;;;;;23.63;7.68;;;;;;;11.84;70.93;98682.72;10391513;28;20036;-59
2024/03/30 22:38:30;;;;;;;36.03;11.23;;;;;;;11.79;71.44;98679.88;10392095;28;20045;-59
2024/03/30 22:43:31;;;;;;;35.45;14.18;;;;;;;11.79;71.05;98682.56;10408954;28;20168;-60
2024/03/30 22:48:31;;;;;;;27.00;10.10;;;;;;;11.83;71.23;98698.06;10387937;28;20042;-59
2024/03/30 22:53:32;;;;;;;18.20;6.13;;;;;;;11.86;70.89;98683.34;10409123;28;20053;-60
2024/03/30 22:58:33;;;;;;;20.55;4.53;;;;;;;11.85;70.65;98684.41;10409455;28;20049;-58
2024/03/30 23:03:33;;;;;;;19.00;4.65;;;;;;;11.88;70.66;98683.94;10415052;28;20044;-57
2024/03/30 23:08:34;;;;;;;20.98;4.32;;;;;;;11.90;71.21;98698.81;10413641;28;20059;-57